createdAt,value
2017-04-20T01:36:31.443Z,0
2017-04-20T01:37:19.993Z,0
2017-04-20T01:38:08.541Z,0
2017-04-20T01:38:57.185Z,0
2017-04-20T01:39:45.994Z,0
2017-04-20T01:40:34.547Z,0
2017-04-20T01:41:23.331Z,0
2017-04-20T01:42:11.545Z,0
2017-04-20T01:43:00.048Z,0
2017-04-20T01:43:48.808Z,0
2017-04-20T01:44:37.534Z,0
2017-04-20T01:45:26.039Z,0
2017-04-20T01:46:15.844Z,0
2017-04-20T01:47:04.344Z,0
2017-04-20T01:47:53.117Z,0
2017-04-20T01:48:41.882Z,0
2017-04-20T01:49:30.912Z,0
2017-04-20T01:50:19.053Z,0
2017-04-20T01:51:07.907Z,0
2017-04-20T01:51:56.463Z,0
2017-04-20T01:55:52.028Z,0
2017-04-20T01:56:40.868Z,0
2017-04-20T01:57:29.349Z,0
2017-04-20T01:58:17.585Z,0
2017-04-20T01:59:06.429Z,0
2017-04-20T01:59:54.895Z,0
2017-04-20T02:00:43.983Z,0
2017-04-20T02:01:32.413Z,0
2017-04-20T02:02:21.247Z,0
2017-04-20T02:03:09.923Z,0
2017-04-20T02:03:58.401Z,0
2017-04-20T02:04:48.721Z,0
2017-04-20T02:05:51.350Z,0
2017-04-20T02:58:35.833Z,0
2017-04-20T02:59:24.165Z,0
2017-04-20T03:00:12.722Z,0
2017-04-20T03:01:01.561Z,0
2017-04-20T03:01:50.305Z,0
2017-04-20T03:02:38.696Z,0
2017-04-20T03:03:27.608Z,0
2017-04-20T03:04:16.043Z,0
2017-04-20T03:05:04.899Z,0
2017-04-20T03:05:53.126Z,0
2017-04-20T03:06:42.439Z,0
2017-04-20T03:07:30.595Z,0
2017-04-20T03:08:19.164Z,0
2017-04-20T03:09:07.891Z,0
2017-04-20T03:09:56.481Z,0
2017-04-20T03:10:45.319Z,0
2017-04-20T03:11:34.055Z,0
2017-04-20T03:12:22.530Z,0
2017-04-20T03:13:11.341Z,0
2017-04-20T03:14:00.116Z,0
2017-04-20T03:14:48.901Z,0
2017-04-20T03:15:37.120Z,0
2017-04-20T03:16:25.571Z,0
2017-04-20T03:17:14.592Z,0
2017-04-20T03:18:03.437Z,0
2017-04-20T03:18:51.612Z,0
2017-04-20T03:19:40.927Z,0
2017-04-20T03:20:29.565Z,0
2017-04-20T03:21:18.165Z,0
2017-04-20T03:22:07.063Z,0
2017-04-20T03:22:55.811Z,0
2017-04-20T03:23:44.095Z,0
2017-04-20T03:24:33.611Z,0
2017-04-20T03:25:22.479Z,0
2017-04-20T03:26:10.994Z,0
2017-04-20T03:27:00.223Z,0
2017-04-20T03:27:48.558Z,0
2017-04-20T03:28:37.697Z,0
2017-04-20T03:29:25.977Z,0
2017-04-20T03:30:14.826Z,0
2017-04-20T03:31:03.110Z,0
2017-04-20T03:31:51.859Z,0
2017-04-20T03:32:41.031Z,0
2017-04-20T03:33:31.858Z,0
2017-04-20T03:34:21.524Z,0
2017-04-20T03:35:09.585Z,0
2017-04-20T03:39:29.388Z,0
2017-04-20T03:40:18.037Z,0
2017-04-20T03:41:07.140Z,0
2017-04-20T03:41:55.250Z,0
2017-04-20T03:42:47.042Z,0
2017-04-20T03:43:35.624Z,0
2017-04-20T03:44:24.160Z,0
2017-04-20T03:45:11.881Z,0
2017-04-20T03:45:59.790Z,0
2017-04-20T03:46:48.424Z,0
2017-04-20T03:47:37.443Z,0
2017-04-20T03:48:19.196Z,0
2017-04-20T03:48:59.541Z,0
2017-04-20T03:49:40.479Z,0
2017-04-20T03:50:21.273Z,0
2017-04-20T03:51:01.698Z,0
2017-04-20T03:51:42.092Z,0
2017-04-20T03:52:22.573Z,0
2017-04-20T03:56:18.239Z,0
2017-04-20T03:57:06.043Z,0
2017-04-20T04:02:51.334Z,0
2017-04-20T04:03:39.587Z,0
2017-04-20T04:04:28.317Z,0
2017-04-20T04:05:16.894Z,0
2017-04-20T04:06:10.817Z,0
2017-04-20T04:06:59.145Z,0
2017-04-20T04:07:47.977Z,0
2017-04-20T04:08:36.935Z,0
2017-04-20T04:09:25.190Z,0
2017-04-20T04:10:14.160Z,0
2017-04-20T04:11:02.897Z,0
2017-04-20T04:11:51.092Z,0
2017-04-20T07:20:25.409Z,560
2017-04-20T07:22:46.853Z,565
2017-04-20T07:23:35.419Z,565
2017-04-20T08:26:16.831Z,4005
2017-04-20T08:26:57.243Z,4005
2017-04-20T08:27:37.661Z,3950
2017-04-20T08:28:18.060Z,3810
2017-04-20T08:28:58.474Z,3775
2017-04-20T08:29:38.880Z,3760
2017-04-20T08:30:19.303Z,3720
2017-04-20T08:30:59.733Z,3775
2017-04-20T08:31:40.136Z,3895
2017-04-20T08:32:20.582Z,3815
2017-04-20T08:33:01.014Z,3905
2017-04-20T08:33:41.420Z,4060
2017-04-20T08:34:21.866Z,3960
2017-04-20T08:35:02.236Z,3815
2017-04-20T08:35:42.661Z,3870
2017-04-20T08:36:23.054Z,3965
2017-04-20T08:37:03.500Z,3960
2017-04-20T08:37:43.971Z,3940
2017-04-20T08:38:24.340Z,3835
2017-04-20T08:39:04.736Z,3930
2017-04-20T08:39:45.200Z,3990
2017-04-20T08:40:25.623Z,3960
2017-04-20T08:41:06.022Z,3800
2017-04-20T08:41:46.456Z,3825
2017-04-20T08:42:26.886Z,4030
2017-04-20T08:43:07.303Z,4130
2017-04-20T08:43:47.662Z,4055
2017-04-20T08:44:28.064Z,4015
2017-04-20T08:45:08.546Z,4010
2017-04-20T08:45:48.900Z,4100
2017-04-20T08:46:29.327Z,4220
2017-04-20T08:47:11.223Z,4405
2017-04-20T08:47:51.691Z,4310
2017-04-20T08:48:32.126Z,4155
2017-04-20T08:49:12.501Z,4190
2017-04-20T08:49:52.947Z,4335
2017-04-20T08:50:33.381Z,4400
2017-04-20T08:51:13.794Z,4500
2017-04-20T08:51:54.271Z,4490
2017-04-20T08:52:34.707Z,4580
2017-04-20T08:53:15.127Z,4490
2017-04-20T08:53:55.556Z,4200
2017-04-20T08:54:35.935Z,4100
2017-04-20T08:55:16.351Z,1585
2017-04-20T08:55:56.777Z,2135
2017-04-20T08:56:37.211Z,1975
2017-04-20T08:57:17.596Z,4300
2017-04-20T08:57:57.992Z,4745
2017-04-20T08:58:38.389Z,4615
2017-04-20T08:59:18.841Z,1730
2017-04-20T08:59:59.271Z,1345
2017-04-20T09:00:39.701Z,1445
2017-04-20T09:01:20.136Z,2460
2017-04-20T09:02:00.506Z,4570
2017-04-20T09:02:40.948Z,4900
2017-04-20T09:03:21.369Z,5095
2017-04-20T09:04:01.773Z,5015
2017-04-20T09:04:42.201Z,4605
2017-04-20T09:05:22.618Z,3090
2017-04-20T09:06:03.029Z,4490
2017-04-20T09:06:43.412Z,4525
2017-04-20T09:07:23.900Z,4690
2017-04-20T09:08:04.278Z,5000
2017-04-20T09:08:44.700Z,5170
2017-04-20T09:09:25.125Z,4820
2017-04-20T09:10:05.556Z,2985
2017-04-20T09:10:45.948Z,1760
2017-04-20T09:11:26.366Z,3975
2017-04-20T09:12:06.830Z,2700
2017-04-20T09:12:47.265Z,5080
2017-04-20T09:13:27.688Z,5215
2017-04-20T09:14:08.137Z,5090
2017-04-20T09:14:48.557Z,4940
2017-04-20T09:15:29.067Z,4880
2017-04-20T09:16:09.531Z,5020
2017-04-20T09:16:49.971Z,5320
2017-04-20T09:17:30.426Z,5320
2017-04-20T09:18:10.818Z,4640
2017-04-20T09:18:51.241Z,5345
2017-04-20T09:19:31.659Z,5425
2017-04-20T09:20:12.098Z,2640
2017-04-20T09:20:52.533Z,5345
2017-04-20T09:21:32.945Z,5200
2017-04-20T09:22:13.377Z,5365
2017-04-20T09:22:53.762Z,5160
2017-04-20T09:23:34.202Z,5165
2017-04-20T09:24:14.651Z,5030
2017-04-20T09:24:55.132Z,5120
2017-04-20T09:25:35.535Z,5040
2017-04-20T09:26:15.895Z,5155
2017-04-20T09:26:56.323Z,5080
2017-04-20T09:27:36.760Z,3815
2017-04-20T09:28:17.227Z,5025
2017-04-20T09:28:57.609Z,5145
2017-04-20T09:29:37.991Z,5160
2017-04-20T09:30:18.406Z,5285
2017-04-20T09:30:58.864Z,5225
2017-04-20T09:31:39.290Z,5050
2017-04-20T09:32:19.724Z,5095
2017-04-20T09:33:00.103Z,5030
2017-04-20T09:33:40.544Z,5075
2017-04-20T09:34:20.955Z,5235
2017-04-20T09:35:01.400Z,5075
2017-04-20T09:35:41.797Z,5115
2017-04-20T09:36:22.289Z,5235
2017-04-20T09:37:02.730Z,5395
2017-04-20T09:37:43.123Z,5275
2017-04-20T09:38:23.588Z,5140
2017-04-20T09:39:04.026Z,5310
2017-04-20T09:39:44.429Z,5420
2017-04-20T09:40:24.857Z,5245
2017-04-20T09:41:05.289Z,4970
2017-04-20T09:41:45.664Z,5245
2017-04-20T09:42:26.147Z,5500
2017-04-20T09:43:06.527Z,5565
2017-04-20T09:43:46.977Z,5175
2017-04-20T09:44:27.388Z,5175
2017-04-20T09:45:07.777Z,5410
2017-04-20T09:45:48.208Z,5955
2017-04-20T09:46:28.637Z,5860
2017-04-20T09:47:09.068Z,5415
2017-04-20T09:47:49.527Z,4960
2017-04-20T09:48:30.006Z,4765
2017-04-20T09:49:10.381Z,5090
2017-04-20T09:49:50.819Z,5190
2017-04-20T09:50:31.217Z,5385
2017-04-20T09:51:11.676Z,5630
2017-04-20T09:51:52.071Z,5665
2017-04-20T09:52:32.528Z,5730
2017-04-20T09:53:12.926Z,5745
2017-04-20T09:53:53.389Z,5515
2017-04-20T09:54:33.839Z,5480
2017-04-20T09:57:08.101Z,5280
2017-04-20T09:57:48.539Z,5560
2017-04-20T09:58:28.979Z,5570
2017-04-20T09:59:09.442Z,5485
2017-04-20T09:59:49.838Z,5455
2017-04-20T10:00:30.241Z,5840
2017-04-20T10:01:10.659Z,5845
2017-04-20T10:01:51.099Z,5725
2017-04-20T10:02:31.535Z,5545
2017-04-20T10:03:11.952Z,5670
2017-04-20T10:03:52.358Z,5740
2017-04-20T10:06:25.714Z,3795
2017-04-20T10:07:06.068Z,5870
2017-04-20T10:07:46.569Z,5860
2017-04-20T10:08:26.940Z,5825
2017-04-20T10:09:07.383Z,5355
2017-04-20T10:09:47.813Z,5420
2017-04-20T10:10:28.208Z,5325
2017-04-20T10:11:08.653Z,5550
2017-04-20T10:11:49.129Z,5210
2017-04-20T10:12:29.536Z,6705
2017-04-20T10:13:10.003Z,6475
2017-04-20T10:13:50.392Z,1695
2017-04-20T10:14:30.806Z,1630
2017-04-20T10:15:11.233Z,1995
2017-04-20T10:15:51.680Z,1840
2017-04-20T10:16:32.110Z,1535
2017-04-20T10:17:12.538Z,1605
2017-04-20T10:17:53.030Z,1895
2017-04-20T10:18:33.472Z,5695
2017-04-20T10:19:13.907Z,5740
2017-04-20T10:19:54.344Z,5740
2017-04-20T10:20:34.805Z,5930
2017-04-20T10:21:15.171Z,6085
2017-04-20T10:21:55.640Z,6020
2017-04-20T10:22:36.069Z,5825
2017-04-20T10:23:17.112Z,5905
2017-04-20T10:23:57.562Z,5805
2017-04-20T10:24:37.944Z,6130
2017-04-20T10:25:18.395Z,5815
2017-04-20T10:25:58.814Z,5715
2017-04-20T10:26:39.246Z,5655
2017-04-20T10:27:19.629Z,5765
2017-04-20T10:28:00.081Z,5745
2017-04-20T10:28:40.547Z,5490
2017-04-20T10:29:20.914Z,5740
2017-04-20T10:30:01.331Z,5855
2017-04-20T10:30:41.738Z,5825
2017-04-20T10:31:22.142Z,5800
2017-04-20T10:32:02.574Z,5995
2017-04-20T10:32:43.023Z,5950
2017-04-20T10:33:23.374Z,5885
2017-04-20T10:34:03.802Z,5915
2017-04-20T10:34:44.329Z,5985
2017-04-20T10:35:24.801Z,5870
2017-04-20T10:36:05.189Z,5720
2017-04-20T10:36:45.648Z,5695
2017-04-20T10:37:26.059Z,5800
2017-04-20T10:38:06.472Z,5535
2017-04-20T10:38:46.891Z,5650
2017-04-20T10:39:27.327Z,5690
2017-04-20T10:40:07.742Z,5795
2017-04-20T10:40:48.248Z,5905
2017-04-20T10:41:28.639Z,5735
2017-04-20T10:42:09.077Z,5320
2017-04-20T10:42:49.557Z,5220
2017-04-20T10:43:29.995Z,5385
2017-04-20T10:44:10.339Z,5195
2017-04-20T10:44:50.778Z,5230
2017-04-20T10:45:31.198Z,5365
2017-04-20T10:46:11.615Z,5580
2017-04-20T10:46:52.114Z,5610
2017-04-20T10:47:32.527Z,5335
2017-04-20T10:48:12.997Z,3185
2017-04-20T10:48:53.426Z,6275
2017-04-20T10:49:33.885Z,5955
2017-04-20T10:50:14.278Z,5920
2017-04-20T10:50:54.688Z,5840
2017-04-20T10:51:35.120Z,5835
2017-04-20T10:52:15.560Z,5870
2017-04-20T10:52:55.944Z,5220
2017-04-20T10:53:36.403Z,2710
2017-04-20T10:54:16.847Z,1965
2017-04-20T10:54:57.290Z,2270
2017-04-20T10:55:37.695Z,5775
2017-04-20T10:56:18.154Z,5650
2017-04-20T10:56:58.555Z,5715
2017-04-20T10:57:38.962Z,5695
2017-04-20T10:58:19.398Z,5575
2017-04-20T10:58:59.860Z,5595
2017-04-20T10:59:40.307Z,5680
2017-04-20T11:00:20.740Z,5635
2017-04-20T11:01:01.191Z,5725
2017-04-20T11:01:41.558Z,5460
2017-04-20T11:02:22.002Z,4865
2017-04-20T11:03:02.471Z,4735
2017-04-20T11:03:42.906Z,4900
2017-04-20T11:04:23.358Z,4890
2017-04-20T11:05:03.789Z,4955
2017-04-20T11:05:44.225Z,5040
2017-04-20T11:06:24.646Z,5335
2017-04-20T11:07:05.181Z,5400
2017-04-20T11:07:45.618Z,5465
2017-04-20T11:08:26.035Z,5545
2017-04-20T11:09:06.447Z,5710
2017-04-20T11:09:46.855Z,5650
2017-04-20T11:10:27.309Z,5795
2017-04-20T11:11:07.762Z,5805
2017-04-20T11:11:48.148Z,5870
2017-04-20T11:12:28.577Z,5735
2017-04-20T11:13:09.002Z,5630
2017-04-20T11:13:49.477Z,5270
2017-04-20T11:14:29.885Z,5125
2017-04-20T11:15:10.251Z,5140
2017-04-20T11:15:50.666Z,4995
2017-04-20T11:16:31.131Z,4965
2017-04-20T11:17:11.527Z,5040
2017-04-20T11:17:51.940Z,5025
2017-04-20T11:18:32.346Z,5175
2017-04-20T11:19:12.812Z,5250
2017-04-20T11:19:53.262Z,5305
2017-04-20T11:20:33.674Z,5035
2017-04-20T11:21:14.719Z,4910
2017-04-20T11:21:54.557Z,5140
2017-04-20T11:22:35.003Z,5505
2017-04-20T11:23:15.408Z,5710
2017-04-20T11:23:55.852Z,5515
2017-04-20T11:24:36.250Z,5440
2017-04-20T11:25:16.687Z,5310
2017-04-20T11:25:57.101Z,5325
2017-04-20T11:26:37.531Z,5395
2017-04-20T11:27:17.948Z,5420
2017-04-20T11:27:58.355Z,5445
2017-04-20T11:28:38.784Z,5450
2017-04-20T11:29:19.235Z,5325
2017-04-20T11:29:59.641Z,5180
2017-04-20T11:30:40.054Z,5140
2017-04-20T11:31:20.486Z,5400
2017-04-20T11:32:00.897Z,5370
2017-04-20T11:32:41.341Z,5450
2017-04-20T11:33:21.771Z,5470
2017-04-20T11:34:02.177Z,4760
2017-04-20T11:34:42.594Z,2860
2017-04-20T11:35:23.013Z,2640
2017-04-20T11:36:03.418Z,3620
2017-04-20T11:36:43.903Z,1415
2017-04-20T11:37:24.267Z,1535
2017-04-20T11:38:05.053Z,4505
2017-04-20T11:38:45.499Z,3835
2017-04-20T11:39:25.918Z,4960
2017-04-20T11:40:06.360Z,3335
2017-04-20T11:40:46.764Z,3885
2017-04-20T11:41:27.213Z,4800
2017-04-20T11:42:07.644Z,5595
2017-04-20T11:42:48.115Z,5595
2017-04-20T11:43:28.514Z,5565
2017-04-20T11:44:08.978Z,5510
2017-04-20T11:44:50.233Z,5640
2017-04-20T11:45:30.204Z,5460
2017-04-20T11:46:10.628Z,5175
2017-04-20T11:46:51.062Z,5200
2017-04-20T11:47:31.500Z,5300
2017-04-20T11:48:11.913Z,5140
2017-04-20T11:48:52.396Z,4920
2017-04-20T11:49:32.810Z,5000
2017-04-20T11:50:13.257Z,4895
2017-04-20T11:50:53.669Z,5140
2017-04-20T11:51:34.070Z,5145
2017-04-20T11:52:14.498Z,4965
2017-04-20T11:52:54.900Z,5020
2017-04-20T11:53:35.316Z,5130
2017-04-20T11:54:15.772Z,5130
2017-04-20T11:54:56.191Z,5095
2017-04-20T11:55:36.618Z,5160
2017-04-20T11:56:17.081Z,4935
2017-04-20T11:56:58.072Z,4955
2017-04-20T11:57:38.615Z,5145
2017-04-20T11:58:19.280Z,5605
2017-04-20T11:59:00.847Z,5610
2017-04-20T11:59:42.651Z,5460
2017-04-20T12:00:23.331Z,5510
2017-04-20T12:01:03.804Z,5615
2017-04-20T12:01:44.253Z,5520
2017-04-20T12:02:24.638Z,5645
2017-04-20T12:03:05.059Z,5375
2017-04-20T12:03:45.468Z,5065
2017-04-20T12:04:25.908Z,4880
2017-04-20T12:06:59.071Z,5045
2017-04-20T12:07:39.519Z,5315
2017-04-20T12:08:19.942Z,5330
2017-04-20T12:09:00.367Z,4975
2017-04-20T12:09:40.793Z,4875
2017-04-20T12:10:21.213Z,5040
2017-04-20T12:11:01.644Z,5275
2017-04-20T12:11:42.080Z,5230
2017-04-20T12:12:22.519Z,5160
2017-04-20T12:13:02.945Z,5035
2017-04-20T12:13:43.423Z,5105
2017-04-20T12:14:23.841Z,5200
2017-04-20T12:15:04.268Z,5140
2017-04-20T12:15:44.766Z,4850
2017-04-20T12:16:25.199Z,4385
2017-04-20T12:17:05.625Z,4650
2017-04-20T12:17:46.060Z,5035
2017-04-20T12:18:26.489Z,5170
2017-04-20T12:19:06.871Z,5055
2017-04-20T12:19:47.297Z,4795
2017-04-20T12:20:27.733Z,4920
2017-04-20T12:21:08.168Z,4890
2017-04-20T12:21:48.588Z,4790
2017-04-20T12:22:29.030Z,4785
2017-04-20T12:23:09.501Z,4880
2017-04-20T12:23:49.905Z,4915
2017-04-20T12:24:30.385Z,4960
2017-04-20T12:25:10.830Z,4855
2017-04-20T12:25:51.229Z,4785
2017-04-20T12:26:31.658Z,5015
2017-04-20T12:27:12.105Z,4915
2017-04-20T12:27:52.538Z,4725
2017-04-20T12:28:33.019Z,4740
2017-04-20T12:29:13.401Z,4785
2017-04-20T12:29:53.835Z,4720
2017-04-20T12:30:34.263Z,4350
2017-04-20T12:31:14.648Z,4310
2017-04-20T12:31:55.096Z,4345
2017-04-20T12:32:35.502Z,4560
2017-04-20T12:33:15.946Z,4610
2017-04-20T12:33:56.363Z,4530
2017-04-20T12:34:36.768Z,4600
2017-04-20T12:35:17.202Z,4625
2017-04-20T12:35:57.639Z,4485
2017-04-20T12:36:38.045Z,4505
2017-04-20T12:37:18.473Z,4470
2017-04-20T12:37:58.921Z,4610
2017-04-20T12:38:39.279Z,4615
2017-04-20T12:39:19.721Z,4530
2017-04-20T12:40:00.196Z,4475
2017-04-20T12:42:29.169Z,4515
2017-04-20T12:43:09.538Z,4170
2017-04-20T12:43:49.988Z,3925
2017-04-20T12:44:30.417Z,3840
2017-04-20T12:45:10.827Z,3940
2017-04-20T12:45:51.285Z,4200
2017-04-20T12:46:31.749Z,4480
2017-04-20T12:47:12.171Z,4555
2017-04-20T12:47:52.566Z,4525
2017-04-20T12:48:32.998Z,4550
2017-04-20T12:49:13.449Z,4510
2017-04-20T12:49:53.858Z,4125
2017-04-20T12:50:34.323Z,4055
2017-04-20T12:51:14.704Z,4295
2017-04-20T12:51:55.132Z,4345
2017-04-20T12:52:35.567Z,4325
2017-04-20T12:53:16.010Z,4140
2017-04-20T12:53:56.479Z,3980
2017-04-20T12:54:36.890Z,4240
2017-04-20T12:55:17.277Z,4105
2017-04-20T12:55:57.766Z,4040
2017-04-20T12:56:38.177Z,3560
2017-04-20T12:57:18.606Z,2850
2017-04-20T12:57:59.021Z,1925
2017-04-20T12:58:39.506Z,1190
2017-04-20T12:59:19.912Z,1020
2017-04-20T13:00:00.337Z,935
2017-04-20T13:00:40.772Z,880
2017-04-20T13:01:21.197Z,845
2017-04-20T13:02:01.621Z,825
2017-04-20T13:02:42.096Z,805
2017-04-20T13:03:22.555Z,790
2017-04-20T13:04:02.967Z,780
2017-04-20T13:04:43.434Z,760
2017-04-20T13:05:23.857Z,750
2017-04-20T13:06:04.257Z,740
2017-04-20T13:06:44.717Z,740
2017-04-20T13:07:25.201Z,735
2017-04-20T13:08:05.678Z,725
2017-04-20T13:08:46.067Z,715
2017-04-20T13:09:26.481Z,710
2017-04-20T13:10:06.895Z,705
2017-04-20T13:10:47.301Z,700
2017-04-20T13:11:27.788Z,695
2017-04-20T13:12:08.186Z,700
2017-04-20T13:12:48.603Z,695
2017-04-20T13:13:28.964Z,695
2017-04-20T13:14:09.404Z,695
2017-04-20T13:14:49.789Z,690
2017-04-20T13:15:30.223Z,690
2017-04-20T13:16:10.644Z,690
2017-04-20T13:16:51.089Z,685
2017-04-20T13:17:31.604Z,675
2017-04-20T13:18:12.052Z,670
2017-04-20T13:18:52.983Z,675
2017-04-20T13:19:33.468Z,670
2017-04-20T13:20:13.879Z,675
2017-04-20T13:20:54.219Z,675
2017-04-20T13:21:34.656Z,665
2017-04-20T13:22:15.096Z,665
2017-04-20T13:22:55.447Z,675
2017-04-20T13:23:35.887Z,690
2017-04-20T13:24:16.251Z,675
2017-04-20T13:24:56.646Z,670
2017-04-20T13:25:37.330Z,670
2017-04-20T13:26:18.570Z,675
2017-04-20T13:26:58.222Z,665
2017-04-20T13:27:38.667Z,660
2017-04-20T13:28:19.095Z,660
2017-04-20T13:28:59.512Z,650
2017-04-20T13:29:40.808Z,640
2017-04-20T13:30:21.277Z,620
2017-04-20T13:31:01.695Z,635
2017-04-20T13:31:42.107Z,640
2017-04-20T13:32:22.522Z,645
2017-04-20T13:33:02.943Z,635
2017-04-20T13:33:44.353Z,630
2017-04-20T13:34:24.719Z,635
2017-04-20T13:35:05.174Z,635
2017-04-20T13:35:45.727Z,640
2017-04-20T13:36:26.170Z,645
2017-04-20T13:37:07.522Z,650
2017-04-20T13:37:47.950Z,645
2017-04-20T13:38:28.343Z,625
2017-04-20T13:39:08.838Z,630
2017-04-20T13:39:49.225Z,625
2017-04-20T13:40:30.581Z,625
2017-04-20T13:41:10.999Z,625
2017-04-20T13:41:51.376Z,630
2017-04-20T13:42:31.845Z,630
2017-04-20T13:43:12.292Z,625
2017-04-20T13:43:53.550Z,620
2017-04-20T13:44:35.727Z,605
2017-04-20T13:45:17.984Z,610
2017-04-20T13:45:58.402Z,605
2017-04-20T13:46:38.775Z,605
2017-04-20T13:47:20.088Z,600
2017-04-20T13:48:00.503Z,605
2017-04-20T13:48:40.882Z,620
2017-04-20T13:49:21.267Z,620
2017-04-20T13:50:01.690Z,620
2017-04-20T13:50:42.935Z,625
2017-04-20T13:51:23.345Z,605
2017-04-20T13:52:04.499Z,610
2017-04-20T13:52:44.883Z,600
2017-04-20T13:53:25.332Z,610
2017-04-20T13:54:05.698Z,615
2017-04-20T13:54:46.059Z,600
2017-04-20T13:55:27.840Z,590
2017-04-20T13:56:08.860Z,580
2017-04-20T13:56:49.758Z,555
2017-04-20T13:57:30.804Z,530
2017-04-20T13:58:11.245Z,585
2017-04-20T13:58:51.697Z,595
2017-04-20T13:59:32.152Z,600
2017-04-20T14:00:13.436Z,595
2017-04-20T14:00:53.908Z,585
2017-04-20T14:01:34.809Z,575
2017-04-20T14:02:15.253Z,580
2017-04-20T14:02:55.702Z,570
2017-04-20T14:03:36.103Z,575
2017-04-20T14:04:16.501Z,565
2017-04-20T14:04:57.858Z,560
2017-04-20T14:05:38.255Z,535
2017-04-20T14:08:23.645Z,545
2017-04-20T14:09:12.588Z,555
2017-04-20T14:10:00.943Z,535
2017-04-20T14:10:49.345Z,540
2017-04-20T14:11:37.796Z,540
2017-04-20T14:12:26.706Z,530
2017-04-20T14:13:14.567Z,525
2017-04-20T14:14:03.785Z,520
2017-04-20T14:14:52.233Z,515
2017-04-20T14:15:41.117Z,505
2017-04-20T14:16:29.328Z,500
2017-04-20T14:17:17.913Z,500
2017-04-20T14:18:07.023Z,495
2017-04-20T14:18:48.659Z,490
2017-04-20T14:19:29.516Z,485
2017-04-20T14:20:10.662Z,480
2017-04-20T14:20:51.528Z,475
2017-04-20T14:21:32.102Z,475
2017-04-20T14:22:14.117Z,485
2017-04-20T14:22:54.564Z,490
2017-04-20T14:23:34.982Z,485
2017-04-20T14:24:15.372Z,475
2017-04-20T14:24:56.525Z,475
2017-04-20T14:25:36.941Z,475
2017-04-20T14:26:17.480Z,465
2017-04-20T14:26:58.571Z,465
2017-04-20T14:27:39.037Z,465
2017-04-20T14:28:20.250Z,465
2017-04-20T14:29:02.567Z,470
2017-04-20T14:29:42.979Z,470
2017-04-20T14:30:24.062Z,470
2017-04-20T14:31:06.122Z,470
2017-04-20T14:31:46.467Z,470
2017-04-20T14:32:26.922Z,475
2017-04-20T14:33:07.307Z,475
2017-04-20T14:33:47.800Z,470
2017-04-20T14:34:28.207Z,470
2017-04-20T14:35:09.567Z,470
2017-04-20T14:35:50.878Z,465
2017-04-20T14:36:31.264Z,455
2017-04-20T14:37:11.686Z,455
2017-04-20T14:37:52.107Z,460
2017-04-20T14:38:32.506Z,465
2017-04-20T14:39:14.726Z,460
2017-04-20T14:39:55.913Z,455
2017-04-20T14:40:36.800Z,450
2017-04-20T14:41:18.073Z,445
2017-04-20T14:41:59.210Z,445
2017-04-20T14:42:41.387Z,440
2017-04-20T14:43:21.850Z,440
2017-04-20T14:44:02.234Z,430
2017-04-20T14:44:42.663Z,430
2017-04-20T14:45:23.783Z,430
2017-04-20T14:46:04.906Z,430
2017-04-20T14:46:45.300Z,435
2017-04-20T14:47:25.767Z,440
2017-04-20T14:48:07.073Z,445
2017-04-20T14:48:47.450Z,450
2017-04-20T14:49:27.893Z,450
2017-04-20T14:50:09.168Z,450
2017-04-20T14:50:50.261Z,445
2017-04-20T14:51:30.626Z,435
2017-04-20T14:52:10.996Z,430
2017-04-20T14:52:53.138Z,425
2017-04-20T14:53:33.648Z,420
2017-04-20T14:54:16.633Z,425
2017-04-20T14:54:57.047Z,415
2017-04-20T14:57:26.357Z,410
2017-04-20T14:58:15.129Z,405
2017-04-20T14:59:03.448Z,400
2017-04-20T14:59:52.299Z,400
2017-04-20T15:00:41.234Z,400
2017-04-20T15:01:30.984Z,400
2017-04-20T15:02:19.196Z,395
2017-04-20T15:03:07.182Z,385
2017-04-20T15:03:47.629Z,380
2017-04-20T15:06:11.866Z,375
2017-04-20T15:07:00.134Z,375
2017-04-20T15:07:48.881Z,375
2017-04-20T15:08:37.696Z,370
2017-04-20T15:09:25.895Z,370
2017-04-20T15:10:14.653Z,365
2017-04-20T15:11:03.742Z,365
2017-04-20T15:11:51.950Z,365
2017-04-20T15:12:41.025Z,360
2017-04-20T15:13:29.759Z,360
2017-04-20T15:14:18.273Z,365
2017-04-20T15:15:07.135Z,365
2017-04-20T15:15:56.192Z,360
2017-04-20T15:16:45.510Z,355
2017-04-20T15:17:33.450Z,355
2017-04-20T15:18:21.989Z,355
2017-04-20T15:19:10.750Z,340
2017-04-20T15:20:00.769Z,335
2017-04-20T15:20:49.286Z,335
2017-04-20T15:21:37.474Z,335
2017-04-20T15:22:26.308Z,330
2017-04-20T15:23:16.799Z,325
2017-04-20T15:24:05.364Z,315
2017-04-20T15:24:54.036Z,305
2017-04-20T15:25:44.257Z,300
2017-04-20T15:26:33.140Z,305
2017-04-20T15:27:13.533Z,300
2017-04-20T15:27:53.950Z,300
2017-04-20T15:28:34.843Z,295
2017-04-20T15:29:15.280Z,300
2017-04-20T15:29:55.671Z,295
2017-04-20T15:30:36.860Z,295
2017-04-20T15:33:31.017Z,280
2017-04-20T15:34:19.633Z,280
2017-04-20T15:35:08.714Z,280
2017-04-20T15:35:57.072Z,275
2017-04-20T15:36:45.768Z,275
2017-04-20T15:37:34.624Z,275
2017-04-20T15:38:23.401Z,275
2017-04-20T15:39:12.001Z,270
2017-04-20T15:39:55.982Z,265
2017-04-20T15:40:36.795Z,265
2017-04-20T15:41:17.186Z,260
2017-04-20T15:41:59.504Z,260
2017-04-20T15:42:40.607Z,260
2017-04-20T15:43:21.854Z,260
2017-04-20T15:44:02.389Z,260
2017-04-20T15:44:44.393Z,260
2017-04-20T15:45:24.909Z,260
2017-04-20T15:46:07.018Z,255
2017-04-20T21:08:02.697Z,0
2017-04-20T21:08:51.282Z,0
2017-04-20T21:11:12.966Z,0
2017-04-20T21:12:01.848Z,0
2017-04-20T21:12:50.113Z,0
2017-04-20T21:13:38.919Z,0
2017-04-20T21:14:27.543Z,0
2017-04-20T21:15:16.110Z,0
2017-04-20T21:16:05.112Z,0
2017-04-20T21:16:54.248Z,0
2017-04-20T21:17:43.335Z,0
2017-04-20T21:18:31.629Z,0
2017-04-20T21:19:20.405Z,0
2017-04-20T21:20:09.137Z,0
2017-04-20T21:20:57.600Z,0
2017-04-20T21:21:46.495Z,0
2017-04-20T21:22:35.276Z,0
2017-04-20T21:23:23.904Z,0
2017-04-20T21:24:12.436Z,0
2017-04-20T21:25:01.006Z,0
2017-04-20T21:25:50.675Z,0
2017-04-20T21:26:39.854Z,0
2017-04-20T21:27:28.840Z,0
2017-04-20T21:28:17.399Z,0
2017-04-20T21:29:06.404Z,0
2017-04-20T21:29:55.820Z,0
2017-04-20T21:30:43.464Z,0
2017-04-20T21:31:32.487Z,0
2017-04-20T21:32:21.033Z,0
2017-04-20T21:33:09.963Z,0
2017-04-20T21:33:58.508Z,0
2017-04-20T21:36:22.151Z,0
2017-04-20T21:37:11.063Z,0
2017-04-20T21:37:59.832Z,0
2017-04-20T21:38:48.197Z,0
2017-04-20T21:39:36.705Z,0
2017-04-20T21:40:25.207Z,0
2017-04-20T21:41:10.960Z,0
2017-04-20T21:41:59.143Z,0
2017-04-20T21:42:48.062Z,0
2017-04-20T21:43:36.556Z,0
2017-04-20T21:44:25.854Z,0
2017-04-20T21:45:15.236Z,0
2017-04-20T21:46:04.008Z,0
2017-04-20T21:46:44.296Z,0
2017-04-20T21:47:27.762Z,0
2017-04-20T21:48:14.581Z,0
2017-04-20T21:49:04.055Z,0
2017-04-20T21:49:45.583Z,0
2017-04-20T21:50:25.951Z,0
2017-04-20T21:51:06.303Z,0
2017-04-20T21:51:47.334Z,0
2017-04-20T21:52:27.724Z,0
2017-04-20T21:53:09.036Z,0
2017-04-20T21:53:49.527Z,0
2017-04-20T21:54:29.889Z,0
2017-04-20T21:55:10.318Z,0
2017-04-20T21:55:50.678Z,0
2017-04-20T21:56:31.118Z,0
2017-04-20T21:57:11.538Z,0
2017-04-20T21:57:51.916Z,0
2017-04-20T21:58:32.810Z,0
2017-04-20T21:59:14.046Z,0
2017-04-20T21:59:54.450Z,0
2017-04-20T22:00:34.834Z,0
2017-04-20T22:01:16.852Z,0
2017-04-20T22:01:57.735Z,0
2017-04-20T22:02:38.162Z,0
2017-04-20T22:03:18.631Z,0
2017-04-20T22:03:58.936Z,0
2017-04-20T22:04:39.373Z,0
2017-04-20T22:05:19.843Z,0
2017-04-20T22:06:00.868Z,0
2017-04-20T22:06:41.266Z,0
2017-04-20T22:07:21.712Z,0
2017-04-20T22:08:02.109Z,0
2017-04-20T22:08:43.183Z,0
2017-04-20T22:09:23.584Z,0
2017-04-20T22:10:03.972Z,0
2017-04-20T22:10:46.170Z,0
2017-04-20T22:11:26.597Z,0
2017-04-20T22:12:06.994Z,0
2017-04-20T22:12:49.143Z,0
2017-04-20T22:13:29.515Z,0
2017-04-20T22:14:09.953Z,0
2017-04-20T22:14:51.126Z,0
2017-04-20T22:15:32.348Z,0
2017-04-20T22:16:12.728Z,0
2017-04-20T22:16:53.173Z,0
2017-04-20T22:17:33.536Z,0
2017-04-20T22:18:14.532Z,0
2017-04-20T22:18:55.699Z,0
2017-04-20T22:19:36.105Z,0
2017-04-20T22:20:16.506Z,0